Aviation Digital Data Service (ADDS)

Output produced by METARs form (2043 UTC 27 April 2017)
found at http://aviationweather.gov/adds/metars/
 
KART 271743Z 2718/2818 16011KT P6SM SCT250 
     FM280100 16010G16KT P6SM BKN130 BKN250 
     FM280300 20014KT 4SM -SHRA BKN030 OVC250 
     FM280600 22010KT P6SM -SHRA VCTS BKN040CB OVC250 
     FM280800 23013KT P6SM BKN045 
     FM281700 23014G20KT P6SM SCT110